createdAt,value
2017-08-01T00:00:29.070Z,99.99
2017-08-01T00:01:29.372Z,99.99
2017-08-01T00:02:29.054Z,99.99
2017-08-01T00:03:29.040Z,99.99
2017-08-01T00:04:29.034Z,99.99
2017-08-01T00:05:29.034Z,99.99
2017-08-01T00:06:29.326Z,99.99
2017-08-01T00:07:29.006Z,99.99
2017-08-01T00:08:29.312Z,99.99
2017-08-01T00:09:29.302Z,99.99
2017-08-01T00:10:29.297Z,99.99
2017-08-01T00:11:28.977Z,99.99
2017-08-01T00:12:28.959Z,99.99
2017-08-01T00:13:29.267Z,99.99
2017-08-01T00:14:29.257Z,99.99
2017-08-01T00:15:29.251Z,99.99
2017-08-01T00:16:29.240Z,99.99
2017-08-01T00:17:28.921Z,99.99
2017-08-01T00:18:29.225Z,99.99
2017-08-01T00:19:29.219Z,99.99
2017-08-01T00:20:28.890Z,99.99
2017-08-01T00:21:29.196Z,99.99
2017-08-01T00:22:29.186Z,99.99
2017-08-01T00:23:28.863Z,99.99
2017-08-01T00:24:29.173Z,99.99
2017-08-01T00:25:28.845Z,99.99
2017-08-01T00:26:29.152Z,99.99
2017-08-01T00:27:29.145Z,99.99
2017-08-01T00:28:29.141Z,99.99
2017-08-01T00:29:29.126Z,99.99
2017-08-01T00:30:29.120Z,99.99
2017-08-01T00:31:29.106Z,99.99
2017-08-01T00:32:29.100Z,99.99
2017-08-01T00:33:28.776Z,99.99
2017-08-01T00:34:28.768Z,99.99
2017-08-01T00:35:29.102Z,99.99
2017-08-01T00:36:29.062Z,99.99
2017-08-01T00:37:29.055Z,99.99
2017-08-01T00:38:28.730Z,99.99
2017-08-01T00:39:28.723Z,99.99
2017-08-01T00:40:28.712Z,99.99
2017-08-01T00:41:28.705Z,99.99
2017-08-01T00:42:28.698Z,99.99
2017-08-01T00:43:29.003Z,99.99
2017-08-01T00:44:28.677Z,99.99
2017-08-01T00:45:28.987Z,99.99
2017-08-01T00:46:28.973Z,99.99
2017-08-01T00:47:28.962Z,99.99
2017-08-01T00:48:28.700Z,99.99
2017-08-01T00:49:28.943Z,99.99
2017-08-01T00:50:28.939Z,99.99
2017-08-01T00:51:28.616Z,99.99
2017-08-01T00:52:28.919Z,99.99
2017-08-01T00:53:28.909Z,99.99
2017-08-01T00:54:28.588Z,99.99
2017-08-01T00:55:28.917Z,99.99
2017-08-01T00:56:28.567Z,99.99
2017-08-01T00:57:28.559Z,99.99
2017-08-01T00:58:28.864Z,99.99
2017-08-01T00:59:28.851Z,99.99
2017-08-01T01:00:28.844Z,99.99
2017-08-01T01:01:28.523Z,99.99
2017-08-01T01:02:28.825Z,99.99
2017-08-01T01:03:28.816Z,99.99
2017-08-01T01:04:28.806Z,99.99
2017-08-01T01:05:28.487Z,99.99
2017-08-01T01:06:28.475Z,99.99
2017-08-01T01:07:28.783Z,99.99
2017-08-01T01:08:28.778Z,99.99
2017-08-01T01:09:28.776Z,99.99
2017-08-01T01:10:28.752Z,99.99
2017-08-01T01:11:28.745Z,99.99
2017-08-01T01:12:28.422Z,99.99
2017-08-01T01:13:28.411Z,99.99
2017-08-01T01:14:28.718Z,99.99
2017-08-01T01:15:28.710Z,99.99
2017-08-01T01:16:28.701Z,99.99
2017-08-01T01:17:28.375Z,99.99
2017-08-01T01:18:28.370Z,99.99
2017-08-01T01:19:28.670Z,99.99
2017-08-01T01:20:28.353Z,99.99
2017-08-01T01:21:28.653Z,99.99
2017-08-01T01:22:28.537Z,99.99
2017-08-01T01:23:28.322Z,99.99
2017-08-01T01:24:28.310Z,99.99
2017-08-01T01:25:28.614Z,99.99
2017-08-01T01:26:28.603Z,99.99
2017-08-01T01:27:28.604Z,99.99
2017-08-01T01:28:28.589Z,99.99
2017-08-01T01:29:28.580Z,99.99
2017-08-01T01:30:28.257Z,99.99
2017-08-01T01:31:28.562Z,99.99
2017-08-01T01:32:28.240Z,99.99
2017-08-01T01:33:28.545Z,99.99
2017-08-01T01:34:28.535Z,99.99
2017-08-01T01:35:28.520Z,99.99
2017-08-01T01:36:28.200Z,99.99
2017-08-01T01:37:28.505Z,99.99
2017-08-01T01:38:28.514Z,99.99
2017-08-01T01:39:28.481Z,99.99
2017-08-01T01:40:28.474Z,99.99
2017-08-01T01:41:28.466Z,99.99
2017-08-01T01:42:28.456Z,99.99
2017-08-01T01:43:28.132Z,99.99
2017-08-01T01:44:28.434Z,99.99
2017-08-01T01:45:28.112Z,99.99
2017-08-01T01:46:28.108Z,99.99
2017-08-01T01:47:28.096Z,99.99
2017-08-01T01:48:28.403Z,99.99
2017-08-01T01:49:28.081Z,99.99
2017-08-01T01:50:28.388Z,99.99
2017-08-01T01:51:28.369Z,99.99
2017-08-01T01:52:28.360Z,99.99
2017-08-01T01:53:28.353Z,99.99
2017-08-01T01:54:28.032Z,99.99
2017-08-01T01:55:28.020Z,99.99
2017-08-01T01:56:28.322Z,99.99
2017-08-01T01:57:28.314Z,99.99
2017-08-01T01:58:27.992Z,99.99
2017-08-01T01:59:28.297Z,99.99
2017-08-01T02:00:28.283Z,99.99
2017-08-01T02:01:27.962Z,99.99
2017-08-01T02:02:27.949Z,99.99
2017-08-01T02:03:27.939Z,99.99
2017-08-01T02:04:28.243Z,99.99
2017-08-01T02:05:27.922Z,99.99
2017-08-01T02:06:27.920Z,99.99
2017-08-01T02:07:27.905Z,99.99
2017-08-01T02:08:27.894Z,99.99
2017-08-01T02:09:27.885Z,99.99
2017-08-01T02:10:27.875Z,99.99
2017-08-01T02:11:27.879Z,99.99
2017-08-01T02:12:27.856Z,99.99
2017-08-01T02:13:27.848Z,99.99
2017-08-01T02:14:28.148Z,99.99
2017-08-01T02:15:28.138Z,99.99
2017-08-01T02:16:27.815Z,99.99
2017-08-01T02:17:28.126Z,99.99
2017-08-01T02:18:27.800Z,99.99
2017-08-01T02:19:28.108Z,99.99
2017-08-01T02:20:28.086Z,99.99
2017-08-01T02:21:28.078Z,99.99
2017-08-01T02:22:28.068Z,99.99
2017-08-01T02:23:27.745Z,99.99
2017-08-01T02:24:28.049Z,99.99
2017-08-01T02:25:27.733Z,99.99
2017-08-01T02:26:28.037Z,99.99
2017-08-01T02:27:28.022Z,99.99
2017-08-01T02:28:28.011Z,99.99
2017-08-01T02:29:27.693Z,99.99
2017-08-01T02:30:28.027Z,99.99
2017-08-01T02:31:27.980Z,99.99
2017-08-01T02:32:27.976Z,99.99
2017-08-01T02:33:27.965Z,99.99
2017-08-01T02:34:27.950Z,99.99
2017-08-01T02:35:27.944Z,99.99
2017-08-01T02:36:27.623Z,99.99
2017-08-01T02:37:27.928Z,99.99
2017-08-01T02:38:27.935Z,99.99
2017-08-01T02:39:27.912Z,99.99
2017-08-01T02:40:27.584Z,99.99
2017-08-01T02:41:27.888Z,99.99
2017-08-01T02:42:27.880Z,99.99
2017-08-01T02:43:27.552Z,99.99
2017-08-01T02:44:27.859Z,99.99
2017-08-01T02:45:27.841Z,99.99
2017-08-01T02:46:27.518Z,99.99
2017-08-01T02:47:27.820Z,99.99
2017-08-01T02:48:27.506Z,99.99
2017-08-01T02:49:27.803Z,99.99
2017-08-01T02:50:27.483Z,99.99
2017-08-01T02:51:27.784Z,99.99
2017-08-01T02:52:27.775Z,99.99
2017-08-01T02:53:27.766Z,99.99
2017-08-01T02:54:27.755Z,99.99
2017-08-01T02:55:27.742Z,99.99
2017-08-01T02:56:27.739Z,99.99
2017-08-01T02:57:27.408Z,99.99
2017-08-01T02:58:27.397Z,99.99
2017-08-01T02:59:27.390Z,99.99
2017-08-01T03:00:27.689Z,99.99
2017-08-01T03:01:27.682Z,99.99
2017-08-01T03:02:27.677Z,99.99
2017-08-01T03:03:27.661Z,99.99
2017-08-01T03:04:27.337Z,99.99
2017-08-01T03:05:27.327Z,99.99
2017-08-01T03:06:27.628Z,99.99
2017-08-01T03:07:27.615Z,99.99
2017-08-01T03:08:27.610Z,99.99
2017-08-01T03:09:27.290Z,99.99
2017-08-01T03:10:27.278Z,99.99
2017-08-01T03:11:27.269Z,99.99
2017-08-01T03:12:27.253Z,99.99
2017-08-01T03:13:27.245Z,99.99
2017-08-01T03:14:27.548Z,99.99
2017-08-01T03:15:27.229Z,99.99
2017-08-01T03:16:27.527Z,99.99
2017-08-01T03:17:27.208Z,99.99
2017-08-01T03:18:27.507Z,99.99
2017-08-01T03:19:27.496Z,99.99
2017-08-01T03:20:27.175Z,99.99
2017-08-01T03:21:27.162Z,99.99
2017-08-01T03:22:27.671Z,99.99
2017-08-01T03:23:27.460Z,99.99
2017-08-01T03:24:27.137Z,99.99
2017-08-01T03:25:27.432Z,99.99
2017-08-01T03:26:27.110Z,99.99
2017-08-01T03:27:27.413Z,99.99
2017-08-01T03:28:27.402Z,99.99
2017-08-01T03:29:27.392Z,99.99
2017-08-01T03:30:27.382Z,99.99
2017-08-01T03:31:27.368Z,99.99
2017-08-01T03:32:27.366Z,99.99
2017-08-01T03:33:27.038Z,99.99
2017-08-01T03:34:27.027Z,99.99
2017-08-01T03:35:27.332Z,99.99
2017-08-01T03:36:27.319Z,99.99
2017-08-01T03:37:27.001Z,99.99
2017-08-01T03:38:27.299Z,99.99
2017-08-01T03:39:27.287Z,99.99
2017-08-01T03:40:27.273Z,99.99
2017-08-01T03:41:27.003Z,99.99
2017-08-01T03:42:27.255Z,99.99
2017-08-01T03:43:27.244Z,99.99
2017-08-01T03:44:27.237Z,99.99
2017-08-01T03:45:26.913Z,99.99
2017-08-01T03:46:26.903Z,99.99
2017-08-01T03:47:26.889Z,99.99
2017-08-01T03:48:26.878Z,99.99
2017-08-01T03:49:26.872Z,99.99
2017-08-01T03:50:26.859Z,99.99
2017-08-01T03:51:26.845Z,99.99
2017-08-01T03:52:27.151Z,99.99
2017-08-01T03:53:27.137Z,99.99
2017-08-01T03:54:27.147Z,99.99
2017-08-01T03:55:27.118Z,99.99
2017-08-01T03:56:26.793Z,99.99
2017-08-01T03:57:27.096Z,99.99
2017-08-01T03:58:27.083Z,99.99
2017-08-01T03:59:26.765Z,99.99
2017-08-01T04:00:27.066Z,99.99
2017-08-01T04:01:26.740Z,99.99
2017-08-01T04:02:26.734Z,99.99
2017-08-01T04:03:26.720Z,99.99
2017-08-01T04:04:27.024Z,99.99
2017-08-01T04:05:27.012Z,99.99
2017-08-01T04:06:26.686Z,99.99
2017-08-01T04:07:26.681Z,99.99
2017-08-01T04:08:26.668Z,99.99
2017-08-01T04:09:26.972Z,99.99
2017-08-01T04:10:26.968Z,99.99
2017-08-01T04:11:26.636Z,99.99
2017-08-01T04:12:26.629Z,99.99
2017-08-01T04:13:26.925Z,99.99
2017-08-01T04:14:26.605Z,99.99
2017-08-01T04:15:26.908Z,99.99
2017-08-01T04:16:26.898Z,99.99
2017-08-01T04:17:26.577Z,99.99
2017-08-01T04:18:26.560Z,99.99
2017-08-01T04:19:26.862Z,99.99
2017-08-01T04:20:26.539Z,99.99
2017-08-01T04:21:26.842Z,99.99
2017-08-01T04:22:26.523Z,99.99
2017-08-01T04:23:26.820Z,99.99
2017-08-01T04:24:26.812Z,99.99
2017-08-01T04:25:26.846Z,99.99
2017-08-01T04:26:26.474Z,99.99
2017-08-01T04:27:26.467Z,99.99
2017-08-01T04:28:26.460Z,99.99
2017-08-01T04:29:26.755Z,99.99
2017-08-01T04:30:26.746Z,99.99
2017-08-01T04:31:26.737Z,99.99
2017-08-01T04:32:26.724Z,99.99
2017-08-01T04:33:26.402Z,99.99
2017-08-01T04:34:26.706Z,99.99
2017-08-01T04:35:26.382Z,99.99
2017-08-01T04:36:26.686Z,99.99
2017-08-01T04:37:26.359Z,99.99
2017-08-01T04:38:26.666Z,99.99
2017-08-01T04:39:26.675Z,99.99
2017-08-01T04:40:26.654Z,99.99
2017-08-01T04:41:26.628Z,99.99
2017-08-01T04:42:26.619Z,99.99
2017-08-01T04:43:26.295Z,99.99
2017-08-01T04:44:26.597Z,99.99
2017-08-01T04:45:26.588Z,99.99
2017-08-01T04:46:26.582Z,99.99
2017-08-01T04:47:26.564Z,99.99
2017-08-01T04:48:26.561Z,99.99
2017-08-01T04:49:26.234Z,99.99
2017-08-01T04:50:26.534Z,99.99
2017-08-01T04:51:26.212Z,99.99
2017-08-01T04:52:26.209Z,99.99
2017-08-01T04:53:26.505Z,99.99
2017-08-01T04:54:26.499Z,99.99
2017-08-01T04:55:26.173Z,99.99
2017-08-01T04:56:26.478Z,99.99
2017-08-01T04:57:26.466Z,99.99
2017-08-01T04:58:26.141Z,99.99
2017-08-01T04:59:26.444Z,99.99
2017-08-01T05:00:26.126Z,99.99
2017-08-01T05:01:26.422Z,99.99
2017-08-01T05:02:26.126Z,99.99
2017-08-01T05:03:26.093Z,99.99
2017-08-01T05:04:26.394Z,99.99
2017-08-01T05:05:26.384Z,99.99
2017-08-01T05:06:26.371Z,99.99
2017-08-01T05:07:26.362Z,99.99
2017-08-01T05:08:26.349Z,99.99
2017-08-01T05:09:26.027Z,99.99
2017-08-01T05:10:26.344Z,99.99
2017-08-01T05:11:26.057Z,99.99
2017-08-01T05:12:26.307Z,99.99
2017-08-01T05:13:26.300Z,99.99
2017-08-01T05:14:26.288Z,99.99
2017-08-01T05:15:26.282Z,99.99
2017-08-01T05:16:26.268Z,99.99
2017-08-01T05:17:26.259Z,99.99
2017-08-01T05:18:26.253Z,99.99
2017-08-01T05:19:25.927Z,99.99
2017-08-01T05:20:26.230Z,99.99
2017-08-01T05:21:26.219Z,99.99
2017-08-01T05:22:26.611Z,99.99
2017-08-01T05:23:26.197Z,99.99
2017-08-01T05:24:25.876Z,99.99
2017-08-01T05:25:26.178Z,99.99
2017-08-01T05:26:26.169Z,99.99
2017-08-01T05:27:26.157Z,99.99
2017-08-01T05:28:25.840Z,99.99
2017-08-01T05:29:26.145Z,99.99
2017-08-01T05:30:25.819Z,99.99
2017-08-01T05:31:26.122Z,99.99
2017-08-01T05:32:25.797Z,99.99
2017-08-01T05:33:26.095Z,99.99
2017-08-01T05:34:26.084Z,99.99
2017-08-01T05:35:25.765Z,99.99
2017-08-01T05:36:26.066Z,99.99
2017-08-01T05:37:25.747Z,99.99
2017-08-01T05:38:25.733Z,99.99
2017-08-01T05:39:25.725Z,99.99
2017-08-01T05:40:26.026Z,99.99
2017-08-01T05:41:26.020Z,99.99
2017-08-01T05:42:26.009Z,99.99
2017-08-01T05:43:25.995Z,99.99
2017-08-01T05:44:25.673Z,99.99
2017-08-01T05:45:25.663Z,99.99
2017-08-01T05:46:26.023Z,99.99
2017-08-01T05:47:25.955Z,99.99
2017-08-01T05:48:25.948Z,99.99
2017-08-01T05:49:25.935Z,99.99
2017-08-01T05:50:25.928Z,99.99
2017-08-01T05:51:25.602Z,99.99
2017-08-01T05:52:25.909Z,99.99
2017-08-01T05:53:25.900Z,99.99
2017-08-01T05:54:25.885Z,99.99
2017-08-01T05:55:25.564Z,99.99
2017-08-01T05:56:25.863Z,99.99
2017-08-01T05:57:25.859Z,99.99
2017-08-01T05:58:25.851Z,99.99
2017-08-01T05:59:25.526Z,99.99
2017-08-01T06:00:25.516Z,99.99
2017-08-01T06:01:25.819Z,99.99
2017-08-01T06:02:25.811Z,99.99
2017-08-01T06:03:25.800Z,99.99
2017-08-01T06:04:25.781Z,99.99
2017-08-01T06:05:25.781Z,99.99
2017-08-01T06:06:25.453Z,99.99
2017-08-01T06:07:25.757Z,99.99
2017-08-01T06:08:25.750Z,99.99
2017-08-01T06:09:25.733Z,99.99
2017-08-01T06:10:25.456Z,99.99
2017-08-01T06:11:25.722Z,99.99
2017-08-01T06:12:25.707Z,99.99
2017-08-01T06:13:25.696Z,99.99
2017-08-01T06:14:25.689Z,99.99
2017-08-01T06:15:25.677Z,99.99
2017-08-01T06:16:25.357Z,99.99
2017-08-01T06:17:25.344Z,99.99
2017-08-01T06:18:25.342Z,99.99
2017-08-01T06:19:25.636Z,99.99
2017-08-01T06:20:25.628Z,99.99
2017-08-01T06:21:25.633Z,99.99
2017-08-01T06:22:25.610Z,99.99
2017-08-01T06:23:25.597Z,99.99
2017-08-01T06:24:25.588Z,99.99
2017-08-01T06:25:25.267Z,99.99
2017-08-01T06:26:25.572Z,99.99
2017-08-01T06:27:25.247Z,99.99
2017-08-01T06:28:25.551Z,99.99
2017-08-01T06:29:25.227Z,99.99
2017-08-01T06:30:25.221Z,99.99
2017-08-01T06:31:25.526Z,99.99
2017-08-01T06:32:25.204Z,99.99
2017-08-01T06:33:25.513Z,99.99
2017-08-01T06:34:25.493Z,99.99
2017-08-01T06:35:25.481Z,99.99
2017-08-01T06:36:25.160Z,99.99
2017-08-01T06:37:25.148Z,99.99
2017-08-01T06:38:25.148Z,99.99
2017-08-01T06:39:25.446Z,99.99
2017-08-01T06:40:25.441Z,99.99
2017-08-01T06:41:25.124Z,99.99
2017-08-01T06:42:25.115Z,99.99
2017-08-01T06:43:25.103Z,99.99
2017-08-01T06:44:25.406Z,99.99
2017-08-01T06:45:25.397Z,99.99
2017-08-01T06:46:25.067Z,99.99
2017-08-01T06:47:25.060Z,99.99
2017-08-01T06:48:25.371Z,99.99
2017-08-01T06:49:25.356Z,99.99
2017-08-01T06:50:25.347Z,99.99
2017-08-01T06:51:25.342Z,99.99
2017-08-01T06:52:25.336Z,99.99
2017-08-01T06:53:25.321Z,99.99
2017-08-01T06:54:24.997Z,99.99
2017-08-01T06:55:25.307Z,99.99
2017-08-01T06:56:24.979Z,99.99
2017-08-01T06:57:24.970Z,99.99
2017-08-01T06:58:24.965Z,99.99
2017-08-01T06:59:24.957Z,99.99
2017-08-01T07:00:24.951Z,99.99
2017-08-01T07:01:25.248Z,99.99
2017-08-01T07:02:24.929Z,99.99
2017-08-01T07:03:25.229Z,99.99
2017-08-01T07:04:25.246Z,99.99
2017-08-01T07:05:25.213Z,99.99
2017-08-01T07:06:24.893Z,99.99
2017-08-01T07:07:25.210Z,99.99
2017-08-01T07:08:25.187Z,99.99
2017-08-01T07:09:25.187Z,99.99
2017-08-01T07:10:25.175Z,99.99
2017-08-01T07:11:24.850Z,99.99
2017-08-01T07:12:25.157Z,99.99
2017-08-01T07:13:25.151Z,99.99
2017-08-01T07:14:25.141Z,99.99
2017-08-01T07:15:25.134Z,99.99
2017-08-01T07:16:25.122Z,99.99
2017-08-01T07:17:25.118Z,99.99
2017-08-01T07:18:25.114Z,99.99
2017-08-01T07:19:25.101Z,99.99
2017-08-01T07:20:25.096Z,99.99
2017-08-01T07:21:25.089Z,99.99
2017-08-01T07:22:25.096Z,99.99
2017-08-01T07:23:25.070Z,99.99
2017-08-01T07:24:24.751Z,99.99
2017-08-01T07:25:24.743Z,99.99
2017-08-01T07:26:24.736Z,99.99
2017-08-01T07:27:25.038Z,99.99
2017-08-01T07:28:24.718Z,99.99
2017-08-01T07:29:24.717Z,99.99
2017-08-01T07:30:25.021Z,99.99
2017-08-01T07:31:25.008Z,99.99
2017-08-01T07:32:24.689Z,99.99
2017-08-01T07:33:24.992Z,99.99
2017-08-01T07:34:24.670Z,99.99
2017-08-01T07:35:24.666Z,99.99
2017-08-01T07:36:24.972Z,99.99
2017-08-01T07:37:24.964Z,99.99
2017-08-01T07:38:24.957Z,99.99
2017-08-01T07:39:24.951Z,99.99
2017-08-01T07:40:24.939Z,99.99
2017-08-01T07:41:24.620Z,99.99
2017-08-01T07:42:24.614Z,99.99
2017-08-01T07:43:24.919Z,99.99
2017-08-01T07:44:24.915Z,99.99
2017-08-01T07:45:24.907Z,99.99
2017-08-01T07:46:24.922Z,99.99
2017-08-01T07:47:24.580Z,99.99
2017-08-01T07:48:24.887Z,99.99
2017-08-01T07:49:24.574Z,99.99
2017-08-01T07:50:24.883Z,99.99
2017-08-01T07:51:24.870Z,99.99
2017-08-01T07:52:24.549Z,99.99
2017-08-01T07:53:24.854Z,99.99
2017-08-01T07:54:24.540Z,99.99
2017-08-01T07:55:24.530Z,99.99
2017-08-01T07:56:24.833Z,99.99
2017-08-01T07:57:24.827Z,99.99
2017-08-01T07:58:24.508Z,99.99
2017-08-01T07:59:24.503Z,99.99
2017-08-01T08:00:24.497Z,99.99
2017-08-01T08:01:24.809Z,99.99
2017-08-01T08:02:24.796Z,99.99
2017-08-01T08:03:24.844Z,99.99
2017-08-01T08:04:24.783Z,99.99
2017-08-01T08:05:24.459Z,99.99
2017-08-01T08:06:24.454Z,99.99
2017-08-01T08:07:24.758Z,99.99
2017-08-01T08:08:24.498Z,99.99
2017-08-01T08:09:24.439Z,99.99
2017-08-01T08:10:24.429Z,99.99
2017-08-01T08:11:24.736Z,99.99
2017-08-01T08:12:24.766Z,99.99
2017-08-01T08:13:24.418Z,99.99
2017-08-01T08:14:24.714Z,99.99
2017-08-01T08:15:24.403Z,99.99
2017-08-01T08:16:24.388Z,99.99
2017-08-01T08:17:24.692Z,99.99
2017-08-01T08:18:24.374Z,99.99
2017-08-01T08:19:24.680Z,99.99
2017-08-01T08:20:24.688Z,99.99
2017-08-01T08:21:24.664Z,99.99
2017-08-01T08:22:24.364Z,99.99
2017-08-01T08:23:24.655Z,99.99
2017-08-01T08:24:24.334Z,99.99
2017-08-01T08:25:24.533Z,99.99
2017-08-01T08:26:24.633Z,99.99
2017-08-01T08:27:24.314Z,99.99
2017-08-01T08:28:24.622Z,99.99
2017-08-01T08:29:24.301Z,99.99
2017-08-01T08:30:24.294Z,99.99
2017-08-01T08:31:24.603Z,99.99
2017-08-01T08:32:24.287Z,99.99
2017-08-01T08:33:24.642Z,99.99
2017-08-01T08:34:24.582Z,99.99
2017-08-01T08:35:24.576Z,99.99
2017-08-01T08:36:24.257Z,99.99
2017-08-01T08:37:24.586Z,99.99
2017-08-01T08:38:24.566Z,99.99
2017-08-01T08:39:24.553Z,99.99
2017-08-01T08:40:24.546Z,99.99
2017-08-01T08:41:24.540Z,99.99
2017-08-01T08:42:24.531Z,99.99
2017-08-01T08:43:24.535Z,99.99
2017-08-01T08:44:24.207Z,99.99
2017-08-01T08:45:24.510Z,99.99
2017-08-01T08:46:24.502Z,99.99
2017-08-01T08:47:24.495Z,99.99
2017-08-01T08:48:24.493Z,99.99
2017-08-01T08:49:24.491Z,99.99
2017-08-01T08:50:24.483Z,99.99
2017-08-01T08:51:24.164Z,99.99
2017-08-01T08:52:24.150Z,99.99
2017-08-01T08:53:24.459Z,99.99
2017-08-01T08:54:24.140Z,99.99
2017-08-01T08:55:24.452Z,99.99
2017-08-01T08:56:24.128Z,99.99
2017-08-01T08:57:24.122Z,99.99
2017-08-01T08:58:24.430Z,99.99
2017-08-01T08:59:24.428Z,99.99
2017-08-01T09:00:24.424Z,99.99
2017-08-01T09:01:24.100Z,99.99
2017-08-01T09:02:24.403Z,99.99
2017-08-01T09:03:24.085Z,99.99
2017-08-01T09:04:24.080Z,99.99
2017-08-01T09:05:24.073Z,99.99
2017-08-01T09:06:24.386Z,99.99
2017-08-01T09:07:24.378Z,99.99
2017-08-01T09:08:24.054Z,99.99
2017-08-01T09:09:24.046Z,99.99
2017-08-01T09:10:24.360Z,99.99
2017-08-01T09:11:24.349Z,99.99
2017-08-01T09:12:24.047Z,99.99
2017-08-01T09:13:24.024Z,99.99
2017-08-01T09:14:24.329Z,99.99
2017-08-01T09:15:24.007Z,99.99
2017-08-01T09:16:24.312Z,99.99
2017-08-01T09:17:24.349Z,99.99
2017-08-01T09:18:24.303Z,99.99
2017-08-01T09:19:24.296Z,99.99
2017-08-01T09:20:24.289Z,99.99
2017-08-01T09:21:23.967Z,99.99
2017-08-01T09:22:24.278Z,99.99
2017-08-01T09:23:24.157Z,99.99
2017-08-01T09:24:24.259Z,99.99
2017-08-01T09:25:23.944Z,99.99
2017-08-01T09:26:23.937Z,99.99
2017-08-01T09:27:23.928Z,99.99
2017-08-01T09:28:24.232Z,99.99
2017-08-01T09:29:24.243Z,99.99
2017-08-01T09:30:24.221Z,99.99
2017-08-01T09:31:23.904Z,99.99
2017-08-01T09:32:24.210Z,99.99
2017-08-01T09:33:24.200Z,99.99
2017-08-01T09:34:24.218Z,99.99
2017-08-01T09:35:23.883Z,99.99
2017-08-01T09:36:23.885Z,99.99
2017-08-01T09:37:23.862Z,99.99
2017-08-01T09:38:24.164Z,99.99
2017-08-01T09:39:24.166Z,99.99
2017-08-01T09:40:24.152Z,99.99
2017-08-01T09:41:24.146Z,99.99
2017-08-01T09:42:23.826Z,99.99
2017-08-01T09:43:24.133Z,99.99
2017-08-01T09:44:24.034Z,99.99
2017-08-01T09:45:23.806Z,99.99
2017-08-01T09:46:23.809Z,99.99
2017-08-01T09:47:24.111Z,99.99
2017-08-01T09:48:24.099Z,99.99
2017-08-01T09:49:23.831Z,99.99
2017-08-01T09:50:23.776Z,99.99
2017-08-01T09:51:24.078Z,99.99
2017-08-01T09:52:23.763Z,99.99
2017-08-01T09:53:23.753Z,99.99
2017-08-01T09:54:24.117Z,99.99
2017-08-01T09:55:24.050Z,99.99
2017-08-01T09:56:24.047Z,99.99
2017-08-01T09:57:24.043Z,99.99
2017-08-01T09:58:24.040Z,99.99
2017-08-01T09:59:24.026Z,99.99
2017-08-01T10:00:24.022Z,99.99
2017-08-01T10:01:24.015Z,99.99
2017-08-01T10:02:24.010Z,99.99
2017-08-01T10:03:23.691Z,99.99
2017-08-01T10:04:23.683Z,99.99
2017-08-01T10:05:23.996Z,99.99
2017-08-01T10:06:23.984Z,99.99
2017-08-01T10:07:23.665Z,99.99
2017-08-01T10:08:23.659Z,99.99
2017-08-01T10:09:23.963Z,99.99
2017-08-01T10:10:23.959Z,99.99
2017-08-01T10:11:23.640Z,99.99
2017-08-01T10:12:23.956Z,99.99
2017-08-01T10:13:23.627Z,99.99
2017-08-01T10:14:23.620Z,99.99
2017-08-01T10:15:23.926Z,99.99
2017-08-01T10:16:23.609Z,99.99
2017-08-01T10:17:23.920Z,99.99
2017-08-01T10:18:23.596Z,99.99
2017-08-01T10:19:23.904Z,99.99
2017-08-01T10:20:23.588Z,99.99
2017-08-01T10:21:23.892Z,99.99
2017-08-01T10:22:23.887Z,99.99
2017-08-01T10:23:23.578Z,99.99
2017-08-01T10:24:23.879Z,99.99
2017-08-01T10:25:23.554Z,99.99
2017-08-01T10:26:23.862Z,99.99
2017-08-01T10:27:23.542Z,99.99
2017-08-01T10:28:23.858Z,99.99
2017-08-01T10:29:23.851Z,99.99
2017-08-01T10:30:23.841Z,99.99
2017-08-01T10:31:23.528Z,99.99
2017-08-01T10:32:23.838Z,99.99
2017-08-01T10:33:23.517Z,98.88
2017-08-01T10:34:23.512Z,96.84
2017-08-01T10:35:23.510Z,93.64
2017-08-01T10:36:23.817Z,93.88
2017-08-01T10:37:23.814Z,87.52
2017-08-01T10:38:23.503Z,90.28
2017-08-01T10:39:23.813Z,85.08
2017-08-01T10:40:23.809Z,82.07
2017-08-01T10:41:23.494Z,84.55
2017-08-01T10:42:23.804Z,82.89
2017-08-01T10:43:23.487Z,84.45
2017-08-01T10:44:23.491Z,83.04
2017-08-01T10:45:23.806Z,82.71
2017-08-01T10:46:23.805Z,84.66
2017-08-01T10:47:23.483Z,84.38
2017-08-01T10:48:23.794Z,87.44
2017-08-01T10:49:23.482Z,90.78
2017-08-01T10:50:23.482Z,91.17
2017-08-01T10:51:23.479Z,92.49
2017-08-01T10:52:23.787Z,93.16
2017-08-01T10:53:23.784Z,93.99
2017-08-01T10:54:23.785Z,94.86
2017-08-01T10:55:23.468Z,97.08
2017-08-01T10:56:23.776Z,99.99
2017-08-01T10:57:23.463Z,96.26
2017-08-01T10:58:23.457Z,96.84
2017-08-01T10:59:23.766Z,96.94
2017-08-01T11:00:23.454Z,97.62
2017-08-01T11:01:23.450Z,95.06
2017-08-01T11:02:23.442Z,95.25
2017-08-01T11:03:23.436Z,96.6
2017-08-01T11:04:23.744Z,97.47
2017-08-01T11:05:23.744Z,97.96
2017-08-01T11:06:23.736Z,99.41
2017-08-01T11:07:23.734Z,99.99
2017-08-01T11:08:23.737Z,99.99
2017-08-01T11:09:23.411Z,99.99
2017-08-01T11:10:23.722Z,99.94
2017-08-01T11:11:23.735Z,99.99
2017-08-01T11:12:23.404Z,99.79
2017-08-01T11:13:23.390Z,98.39
2017-08-01T11:14:23.710Z,98.39
2017-08-01T11:15:23.712Z,97.57
2017-08-01T11:16:23.690Z,93.94
2017-08-01T11:17:23.371Z,93.3
2017-08-01T11:18:23.682Z,92.24
2017-08-01T11:19:23.391Z,94.37
2017-08-01T11:20:23.361Z,91.27
2017-08-01T11:21:23.668Z,89.67
2017-08-01T11:22:23.659Z,89.86
2017-08-01T11:23:23.861Z,86.47
2017-08-01T11:24:23.660Z,85.69
2017-08-01T11:25:23.339Z,86.27
2017-08-01T11:26:23.339Z,87.19
2017-08-01T11:27:23.330Z,87.34
2017-08-01T11:28:23.639Z,85.44
2017-08-01T11:29:23.321Z,85.54
2017-08-01T11:30:23.631Z,85.35
2017-08-01T11:31:23.633Z,87.34
2017-08-01T11:32:23.625Z,86.8
2017-08-01T11:33:23.620Z,88.51
2017-08-01T11:34:23.617Z,86.66
2017-08-01T11:35:23.618Z,89.04
2017-08-01T11:36:23.302Z,89.82
2017-08-01T11:37:23.294Z,89.92
2017-08-01T11:38:23.615Z,90.94
2017-08-01T11:39:23.291Z,90.88
2017-08-01T11:40:23.595Z,92.68
2017-08-01T11:41:55.357Z,95
2017-08-01T11:42:23.273Z,92.68
2017-08-01T11:43:23.586Z,93.94
2017-08-01T11:44:23.270Z,93.35
2017-08-01T11:45:23.263Z,92.68
2017-08-01T11:46:23.566Z,93.21
2017-08-01T11:47:23.565Z,95.05
2017-08-01T11:48:23.565Z,95.54
2017-08-01T11:49:23.245Z,95.73
2017-08-01T11:50:23.237Z,98.2
2017-08-01T11:51:23.553Z,98.78
2017-08-01T11:52:23.229Z,99.99
2017-08-01T11:53:23.539Z,99.99
2017-08-01T11:54:23.535Z,99.55
2017-08-01T11:55:23.213Z,99.99
2017-08-01T11:56:23.206Z,99.99
2017-08-01T11:57:23.515Z,99.99
2017-08-01T11:58:23.511Z,99.99
2017-08-01T11:59:23.502Z,99.99
2017-08-01T12:00:23.190Z,99.99
2017-08-01T12:01:23.186Z,99.99
2017-08-01T12:02:23.492Z,99.99
2017-08-01T12:03:23.480Z,99.99
2017-08-01T12:04:23.185Z,99.99
2017-08-01T12:05:23.485Z,99.99
2017-08-01T12:06:23.160Z,99.99
2017-08-01T12:07:23.462Z,99.99
2017-08-01T12:08:23.456Z,99.99
2017-08-01T12:09:23.138Z,99.99
2017-08-01T12:10:23.128Z,99.99
2017-08-01T12:11:23.129Z,99.99
2017-08-01T12:12:23.119Z,99.99
2017-08-01T12:13:23.425Z,99.99
2017-08-01T12:14:23.109Z,99.99
2017-08-01T12:15:23.416Z,99.99
2017-08-01T12:16:23.096Z,99.99
2017-08-01T12:17:23.403Z,99.99
2017-08-01T12:18:23.400Z,99.99
2017-08-01T12:19:23.389Z,99.99
2017-08-01T12:20:23.385Z,99.99
2017-08-01T12:21:23.378Z,99.99
2017-08-01T12:22:23.376Z,99.99
2017-08-01T12:23:23.054Z,99.99
2017-08-01T12:24:23.359Z,99.99
2017-08-01T12:25:23.360Z,99.99
2017-08-01T12:26:23.353Z,99.99
2017-08-01T12:27:23.345Z,99.99
2017-08-01T12:28:23.336Z,99.99
2017-08-01T12:29:23.020Z,99.99
2017-08-01T12:30:23.015Z,99.99
2017-08-01T12:31:23.319Z,99.99
2017-08-01T12:32:23.314Z,99.99
2017-08-01T12:33:23.304Z,99.99
2017-08-01T12:34:23.300Z,99.99
2017-08-01T12:35:22.984Z,99.99
2017-08-01T12:36:22.983Z,99.99
2017-08-01T12:37:23.282Z,99.99
2017-08-01T12:38:22.963Z,99.99
2017-08-01T12:39:23.275Z,99.99
2017-08-01T12:40:22.954Z,99.99
2017-08-01T12:41:23.259Z,99.99
2017-08-01T12:42:23.253Z,99.99
2017-08-01T12:43:23.247Z,99.99
2017-08-01T12:44:22.927Z,99.99
2017-08-01T12:45:23.235Z,99.99
2017-08-01T12:46:22.913Z,99.99
2017-08-01T12:47:22.994Z,99.99
2017-08-01T12:48:23.208Z,99.99
2017-08-01T12:49:23.211Z,99.99
2017-08-01T12:50:22.894Z,99.99
2017-08-01T12:51:23.190Z,99.99
2017-08-01T12:52:22.873Z,99.99